Time;durP1;ratioP1;P1;durP2;ratioP2;P2;SDS_P1;SDS_P2;PMS_P1;PMS_P2;Temp;Humidity;BMP_temperature;BMP_pressure;BME280_temperature;BME280_humidity;BME280_pressure;Samples;Min_cycle;Max_cycle;Signal;HPM_P1;HPM_P2
2021/12/23 00:00:56;;;;;;;51.22;28.00;;;-1.90;99.90;;;;;;4976162;28;20466;-82
2021/12/23 00:03:22;;;;;;;53.13;26.45;;;-1.90;99.90;;;;;;4993143;28;20065;-83
2021/12/23 00:05:49;;;;;;;56.13;28.70;;;-1.90;99.90;;;;;;4978961;28;21002;-83
2021/12/23 00:08:14;;;;;;;55.60;29.17;;;-1.90;99.90;;;;;;4994152;28;20037;-83
2021/12/23 00:10:40;;;;;;;57.70;27.73;;;-1.80;99.90;;;;;;4976431;28;20554;-81
2021/12/23 00:13:07;;;;;;;58.92;28.67;;;-1.80;99.90;;;;;;4994251;28;20088;-83
2021/12/23 00:18:05;;;;;;;53.38;27.88;;;-1.70;99.90;;;;;;4993861;28;20575;-83
2021/12/23 00:25:45;;;;;;;49.80;27.50;;;-1.60;99.90;;;;;;4990229;28;20053;-82
2021/12/23 00:28:11;;;;;;;53.05;28.23;;;-1.60;99.90;;;;;;4980492;28;20393;-82
2021/12/23 00:30:36;;;;;;;55.17;29.10;;;-1.60;99.90;;;;;;4978175;28;20054;-83
2021/12/23 00:33:02;;;;;;;55.85;27.88;;;-1.60;99.90;;;;;;4980914;28;20061;-83
2021/12/23 00:35:28;;;;;;;56.20;28.48;;;-1.60;99.90;;;;;;4978651;28;20065;-83
2021/12/23 00:38:00;;;;;;;51.13;28.20;;;-1.60;99.90;;;;;;4994651;28;20227;-83
2021/12/23 00:40:26;;;;;;;52.75;28.67;;;-1.60;99.90;;;;;;4993217;28;20196;-82
2021/12/23 00:42:51;;;;;;;53.85;29.15;;;-1.60;99.90;;;;;;4978447;28;20589;-82
2021/12/23 00:45:17;;;;;;;56.13;28.48;;;-1.50;99.90;;;;;;4978368;28;20422;-82
2021/12/23 00:47:43;;;;;;;53.92;27.77;;;-1.50;99.90;;;;;;4995276;28;20069;-82
2021/12/23 00:50:09;;;;;;;52.38;28.23;;;-1.40;99.90;;;;;;4993104;28;20037;-83
2021/12/23 00:52:37;;;;;;;52.83;28.20;;;-1.40;99.90;;;;;;4978580;28;20073;-82
2021/12/23 00:55:05;;;;;;;54.88;29.00;;;-1.40;99.90;;;;;;4979720;28;20377;-82
2021/12/23 00:57:32;;;;;;;53.92;28.08;;;-1.40;99.90;;;;;;4994023;28;20057;-83
2021/12/23 00:59:58;;;;;;;49.55;27.65;;;-1.40;99.90;;;;;;4991855;28;20787;-82
2021/12/23 01:02:29;;;;;;;54.17;28.63;;;-1.40;99.90;;;;;;4995571;28;20207;-82
2021/12/23 01:04:55;;;;;;;52.50;27.98;;;-1.40;99.90;;;;;;4974488;28;20571;-82
2021/12/23 01:07:21;;;;;;;57.42;28.40;;;-1.40;99.90;;;;;;4993389;28;20518;-83
2021/12/23 01:09:47;;;;;;;58.47;28.33;;;-1.30;99.90;;;;;;4979580;28;20050;-82
2021/12/23 01:12:15;;;;;;;54.50;26.90;;;-1.30;99.90;;;;;;4976313;28;20046;-82
2021/12/23 01:14:53;;;;;;;50.17;26.67;;;-1.30;99.90;;;;;;4993172;28;20037;-83
2021/12/23 01:19:50;;;;;;;49.08;25.85;;;-1.30;99.90;;;;;;4993463;28;20042;-83
2021/12/23 01:22:16;;;;;;;47.38;25.80;;;-1.20;99.90;;;;;;4995725;28;20049;-83
2021/12/23 01:24:42;;;;;;;51.15;26.58;;;-1.20;99.90;;;;;;4981635;28;20392;-82
2021/12/23 01:27:08;;;;;;;53.75;26.48;;;-1.20;99.90;;;;;;4981338;28;20099;-82
2021/12/23 01:29:33;;;;;;;46.65;26.00;;;-1.20;99.90;;;;;;4983233;28;20033;-82
2021/12/23 01:32:03;;;;;;;52.13;26.80;;;-1.10;99.90;;;;;;4999147;28;20092;-82
2021/12/23 01:34:28;;;;;;;54.97;27.95;;;-1.20;99.90;;;;;;4996059;28;20514;-83
2021/12/23 01:36:54;;;;;;;53.05;27.15;;;-1.20;99.90;;;;;;4980398;28;20061;-83
2021/12/23 01:39:20;;;;;;;52.10;26.88;;;-1.20;99.90;;;;;;4983395;28;20045;-83
2021/12/23 01:41:45;;;;;;;52.95;26.40;;;-1.20;99.90;;;;;;4983814;28;20547;-83
2021/12/23 01:44:11;;;;;;;56.20;28.42;;;-1.20;99.90;;;;;;4996918;28;20041;-83
2021/12/23 01:46:37;;;;;;;53.55;26.73;;;-1.20;99.90;;;;;;4980731;28;20053;-83
2021/12/23 01:49:04;;;;;;;51.55;25.75;;;-1.20;99.90;;;;;;4979826;28;20041;-83
2021/12/23 01:51:30;;;;;;;54.58;27.17;;;-1.10;99.90;;;;;;4981719;28;20054;-83
2021/12/23 01:53:55;;;;;;;55.53;27.55;;;-1.10;99.90;;;;;;4977314;28;20048;-83
2021/12/23 01:56:24;;;;;;;58.28;28.80;;;-1.20;99.90;;;;;;4981883;28;20810;-82
2021/12/23 01:58:50;;;;;;;53.03;26.88;;;-1.20;99.90;;;;;;4981267;28;20049;-83
2021/12/23 02:01:15;;;;;;;54.28;28.10;;;-1.10;99.90;;;;;;4977659;28;20054;-83
2021/12/23 02:03:41;;;;;;;56.63;28.75;;;-1.10;99.90;;;;;;4975158;28;20060;-85
2021/12/23 02:06:07;;;;;;;55.75;28.73;;;-1.10;99.90;;;;;;4976549;28;20041;-85
2021/12/23 02:08:34;;;;;;;60.22;29.60;;;-1.10;99.90;;;;;;4981652;28;20042;-85
2021/12/23 02:11:00;;;;;;;60.33;30.65;;;-1.10;99.90;;;;;;4981566;28;20881;-85
2021/12/23 02:13:26;;;;;;;58.72;29.13;;;-1.10;99.90;;;;;;4979134;28;20073;-85
2021/12/23 02:15:52;;;;;;;59.13;30.17;;;-1.10;99.90;;;;;;4998956;28;20045;-83
2021/12/23 02:18:19;;;;;;;55.35;28.80;;;-1.10;99.90;;;;;;4996937;28;20045;-85
2021/12/23 02:20:45;;;;;;;55.67;30.35;;;-1.10;99.90;;;;;;4979047;28;20076;-85
2021/12/23 02:23:10;;;;;;;63.40;29.23;;;-1.10;99.90;;;;;;4995859;28;20450;-85
2021/12/23 02:25:37;;;;;;;61.13;31.70;;;-1.10;99.90;;;;;;4977983;28;20410;-85
2021/12/23 02:28:07;;;;;;;57.35;27.75;;;-1.00;99.90;;;;;;4994358;28;20096;-85
2021/12/23 02:30:37;;;;;;;54.65;28.65;;;-1.00;99.90;;;;;;4980242;28;20606;-85
2021/12/23 02:33:03;;;;;;;56.08;27.55;;;-1.00;99.90;;;;;;4994948;28;20045;-84
2021/12/23 02:35:29;;;;;;;49.58;26.30;;;-1.00;99.90;;;;;;4980483;28;20092;-85
2021/12/23 02:37:55;;;;;;;59.75;27.95;;;-1.10;99.90;;;;;;4989031;28;20504;-85
2021/12/23 02:40:40;;;;;;;57.55;27.25;;;-1.00;99.90;;;;;;4980834;28;20037;-85
2021/12/23 02:43:24;;;;;;;54.75;27.02;;;-1.00;99.90;;;;;;4980874;28;20037;-85
2021/12/23 02:45:52;;;;;;;50.35;26.20;;;-1.00;99.90;;;;;;4979446;28;22885;-85
2021/12/23 02:48:21;;;;;;;54.38;24.83;;;-1.00;99.90;;;;;;4979112;28;20073;-84
2021/12/23 02:50:49;;;;;;;53.60;26.08;;;-1.00;99.90;;;;;;4980888;28;20045;-85
2021/12/23 02:53:15;;;;;;;56.58;26.60;;;-0.90;99.90;;;;;;4977698;28;20045;-84
2021/12/23 02:55:41;;;;;;;51.83;26.52;;;-0.90;99.90;;;;;;4976579;28;20042;-85
2021/12/23 02:58:07;;;;;;;56.47;27.23;;;-0.90;99.90;;;;;;4993019;28;20088;-84
2021/12/23 03:00:33;;;;;;;53.30;25.33;;;-0.90;99.90;;;;;;4978695;28;21610;-85
2021/12/23 03:02:59;;;;;;;58.25;27.33;;;-0.90;99.90;;;;;;4980836;28;20045;-85
2021/12/23 03:05:25;;;;;;;55.45;28.58;;;-0.90;99.90;;;;;;4977555;28;20557;-84
2021/12/23 03:07:50;;;;;;;57.13;27.48;;;-0.80;99.90;;;;;;4997273;28;20056;-85
2021/12/23 03:10:16;;;;;;;56.47;28.58;;;-0.80;99.90;;;;;;4979548;28;20046;-85
2021/12/23 03:12:42;;;;;;;56.00;28.55;;;-0.80;99.90;;;;;;4978606;28;20411;-85
2021/12/23 03:15:08;;;;;;;57.03;27.42;;;-0.70;99.90;;;;;;4980713;28;20148;-85
2021/12/23 03:17:34;;;;;;;57.53;28.35;;;-0.80;99.90;;;;;;4996203;28;20060;-85
2021/12/23 03:20:00;;;;;;;55.58;29.55;;;-0.80;99.90;;;;;;4979410;28;20029;-84
2021/12/23 03:22:26;;;;;;;59.28;27.55;;;-0.70;99.90;;;;;;4982471;28;20049;-84
2021/12/23 03:24:51;;;;;;;52.47;24.73;;;-0.70;99.90;;;;;;4980804;28;20037;-85
2021/12/23 03:27:17;;;;;;;52.35;24.70;;;-0.70;99.90;;;;;;5007944;28;20045;-85
2021/12/23 03:29:43;;;;;;;59.72;27.58;;;-0.70;99.90;;;;;;4981363;28;20148;-84
2021/12/23 03:32:08;;;;;;;53.35;25.65;;;-0.70;99.90;;;;;;4978224;28;20057;-85
2021/12/23 03:34:34;;;;;;;55.83;25.75;;;-0.70;99.90;;;;;;4980089;28;20073;-85
2021/12/23 03:36:59;;;;;;;56.15;26.02;;;-0.70;99.90;;;;;;4979499;28;20067;-84
2021/12/23 03:39:25;;;;;;;58.20;28.45;;;-0.70;99.90;;;;;;4981654;28;20037;-85
2021/12/23 03:41:51;;;;;;;53.67;24.80;;;-0.70;99.90;;;;;;4995904;28;20049;-85
2021/12/23 03:44:16;;;;;;;58.15;25.55;;;-0.70;99.90;;;;;;4993920;28;20046;-85
2021/12/23 03:46:42;;;;;;;61.67;27.92;;;-0.60;99.90;;;;;;4978874;28;20405;-85
2021/12/23 03:49:08;;;;;;;58.55;25.30;;;-0.60;99.90;;;;;;4981089;28;20541;-85
2021/12/23 03:51:35;;;;;;;54.85;26.70;;;-0.60;99.90;;;;;;4981560;28;20057;-85
2021/12/23 03:54:01;;;;;;;56.10;27.98;;;-0.60;99.90;;;;;;4987717;28;20037;-84
2021/12/23 03:56:27;;;;;;;56.22;26.98;;;-0.60;99.90;;;;;;5010272;28;20120;-85
2021/12/23 03:58:54;;;;;;;45.70;22.92;;;-0.60;99.90;;;;;;4980044;28;20135;-85
2021/12/23 04:01:22;;;;;;;64.57;29.85;;;-0.50;99.90;;;;;;4976302;28;20092;-85
2021/12/23 04:03:49;;;;;;;58.13;27.05;;;-0.60;99.90;;;;;;4978702;28;20037;-85
2021/12/23 04:06:15;;;;;;;52.92;27.08;;;-0.50;99.90;;;;;;4978384;28;20144;-85
2021/12/23 04:08:40;;;;;;;56.53;25.65;;;-0.60;99.90;;;;;;4982881;28;20128;-85
2021/12/23 04:11:06;;;;;;;54.67;26.00;;;-0.60;99.90;;;;;;4994301;28;20037;-85
2021/12/23 04:13:32;;;;;;;57.08;27.30;;;-0.60;99.90;;;;;;4993871;28;20041;-85
2021/12/23 04:15:57;;;;;;;57.08;28.83;;;-0.60;99.90;;;;;;5000338;28;20056;-85
2021/12/23 04:18:23;;;;;;;56.60;27.63;;;-0.60;99.90;;;;;;4980680;28;20483;-85
2021/12/23 04:20:55;;;;;;;60.78;27.38;;;-0.60;99.90;;;;;;4980238;28;20051;-85
2021/12/23 04:23:29;;;;;;;55.45;28.05;;;-0.60;99.90;;;;;;4975395;28;20072;-85
2021/12/23 04:25:55;;;;;;;55.47;26.92;;;-0.60;99.90;;;;;;4977820;28;20046;-85
2021/12/23 04:28:22;;;;;;;59.63;26.33;;;-0.50;99.90;;;;;;4978634;28;20080;-85
2021/12/23 04:30:49;;;;;;;57.92;27.92;;;-0.50;99.90;;;;;;4994121;28;20061;-85
2021/12/23 04:33:14;;;;;;;52.17;26.08;;;-0.50;99.90;;;;;;4978959;28;20048;-84
2021/12/23 04:35:40;;;;;;;54.10;26.15;;;-0.50;99.90;;;;;;4978108;28;20042;-84
2021/12/23 04:38:06;;;;;;;67.95;27.80;;;-0.50;99.90;;;;;;4978958;28;20079;-85
2021/12/23 04:40:37;;;;;;;63.58;27.10;;;-0.50;99.90;;;;;;4978081;28;20132;-85
2021/12/23 04:43:05;;;;;;;59.28;26.55;;;-0.60;99.90;;;;;;4978423;28;20092;-84
2021/12/23 04:45:31;;;;;;;53.45;24.50;;;-0.50;99.90;;;;;;4979149;28;20041;-84
2021/12/23 04:47:56;;;;;;;56.80;26.15;;;-0.40;99.90;;;;;;4977807;28;20241;-85
2021/12/23 04:50:22;;;;;;;54.25;27.63;;;-0.40;99.90;;;;;;4976560;28;20064;-84
2021/12/23 04:52:48;;;;;;;55.17;26.55;;;-0.40;99.90;;;;;;4997038;28;20037;-85
2021/12/23 04:55:15;;;;;;;57.97;27.38;;;-0.50;99.90;;;;;;4983811;28;20041;-85
2021/12/23 04:57:42;;;;;;;60.25;27.70;;;-0.50;99.90;;;;;;4982575;28;20085;-85
2021/12/23 05:00:15;;;;;;;61.97;27.83;;;-0.50;99.90;;;;;;5016030;28;20045;-85
2021/12/23 05:02:41;;;;;;;55.15;28.05;;;-0.50;99.90;;;;;;4980067;28;20033;-85
2021/12/23 05:05:07;;;;;;;60.97;26.60;;;-0.50;99.90;;;;;;4984136;28;20044;-85
2021/12/23 05:07:33;;;;;;;56.38;28.20;;;-0.50;99.90;;;;;;4982769;28;20767;-85
2021/12/23 05:09:59;;;;;;;59.85;27.50;;;-0.50;99.90;;;;;;4983898;28;20053;-85
2021/12/23 05:12:24;;;;;;;58.50;28.73;;;-0.50;99.90;;;;;;4982950;28;20060;-85
2021/12/23 05:14:50;;;;;;;62.38;29.17;;;-0.50;99.90;;;;;;4981345;28;20042;-85
2021/12/23 05:17:16;;;;;;;64.50;27.85;;;-0.50;99.90;;;;;;4995660;28;20046;-85
2021/12/23 05:19:42;;;;;;;60.88;27.63;;;-0.40;99.90;;;;;;4996637;28;20068;-85
2021/12/23 05:22:07;;;;;;;59.72;29.38;;;-0.40;99.90;;;;;;5013530;28;20042;-85
2021/12/23 05:24:33;;;;;;;61.97;28.27;;;-0.30;99.90;;;;;;4985012;28;21119;-85
2021/12/23 05:26:59;;;;;;;62.78;27.23;;;-0.20;99.90;;;;;;4997181;28;20496;-84
2021/12/23 05:29:25;;;;;;;59.75;28.05;;;-0.30;99.90;;;;;;4994202;28;20048;-85
2021/12/23 05:31:50;;;;;;;61.15;26.50;;;-0.40;99.90;;;;;;4993622;28;20041;-85
2021/12/23 05:34:16;;;;;;;63.60;28.83;;;-0.40;99.90;;;;;;4996155;28;20053;-85
2021/12/23 05:36:50;;;;;;;55.45;27.98;;;-0.40;99.90;;;;;;4980279;28;20160;-85
2021/12/23 05:39:17;;;;;;;54.78;26.67;;;-0.50;99.90;;;;;;4978685;28;20042;-85
2021/12/23 05:41:43;;;;;;;55.90;27.63;;;-0.50;99.90;;;;;;4981977;28;20043;-85
2021/12/23 05:44:08;;;;;;;55.75;27.75;;;-0.40;99.90;;;;;;4995370;28;20037;-84
2021/12/23 05:46:34;;;;;;;57.97;28.75;;;-0.30;99.90;;;;;;4979877;28;20045;-85
2021/12/23 05:48:59;;;;;;;57.08;26.85;;;-0.40;99.90;;;;;;4994507;28;20053;-85
2021/12/23 05:51:25;;;;;;;58.75;27.67;;;-0.40;99.90;;;;;;4980489;28;20048;-85
2021/12/23 05:53:50;;;;;;;61.92;27.80;;;-0.40;99.90;;;;;;4993974;28;20037;-84
2021/12/23 05:56:16;;;;;;;61.92;28.85;;;-0.40;99.90;;;;;;4980754;28;20049;-85
2021/12/23 05:58:41;;;;;;;64.78;28.05;;;-0.40;99.90;;;;;;4978956;28;20045;-85
2021/12/23 06:01:07;;;;;;;66.07;29.63;;;-0.40;99.90;;;;;;4980839;28;20200;-85
2021/12/23 06:03:33;;;;;;;58.55;28.20;;;-0.40;99.90;;;;;;4982407;28;21075;-85
2021/12/23 06:05:58;;;;;;;64.72;28.90;;;-0.40;99.90;;;;;;4997066;28;20081;-85
2021/12/23 06:08:24;;;;;;;63.08;27.92;;;-0.40;99.90;;;;;;4995979;28;20050;-85
2021/12/23 06:10:49;;;;;;;65.63;28.92;;;-0.40;99.90;;;;;;4981994;28;20033;-85
2021/12/23 06:13:15;;;;;;;63.70;31.98;;;-0.40;99.90;;;;;;4997951;28;20041;-85
2021/12/23 06:15:41;;;;;;;63.33;30.20;;;-0.40;99.90;;;;;;4982529;28;20080;-85
2021/12/23 06:18:06;;;;;;;63.28;31.63;;;-0.40;99.90;;;;;;4981545;28;20061;-85
2021/12/23 06:20:32;;;;;;;68.25;34.45;;;-0.40;99.90;;;;;;4985474;28;20081;-85
2021/12/23 06:22:57;;;;;;;66.88;32.15;;;-0.40;99.90;;;;;;4980195;28;20056;-85
2021/12/23 06:25:23;;;;;;;65.18;30.17;;;-0.40;99.90;;;;;;4995360;28;20189;-85
2021/12/23 06:27:49;;;;;;;66.47;29.65;;;-0.30;99.90;;;;;;4996262;28;20155;-85
2021/12/23 06:30:18;;;;;;;67.07;29.55;;;-0.40;99.90;;;;;;4979798;28;20060;-85
2021/12/23 06:32:46;;;;;;;70.43;29.70;;;-0.40;99.90;;;;;;4978966;28;20277;-84
2021/12/23 06:35:12;;;;;;;58.42;28.52;;;-0.20;99.90;;;;;;4980358;28;20107;-85
2021/12/23 06:37:38;;;;;;;64.03;30.40;;;-0.20;99.90;;;;;;4979634;28;20045;-85
2021/12/23 06:40:05;;;;;;;71.45;29.60;;;-0.40;99.90;;;;;;4987485;28;20615;-85
2021/12/23 06:42:30;;;;;;;64.38;29.27;;;-0.30;99.90;;;;;;4997593;28;20042;-85
2021/12/23 06:44:56;;;;;;;64.45;29.00;;;-0.30;99.90;;;;;;4994039;28;20056;-85
2021/12/23 06:47:21;;;;;;;63.92;29.50;;;-0.30;99.90;;;;;;4979005;28;20119;-86
2021/12/23 06:49:47;;;;;;;59.90;27.83;;;-0.30;99.90;;;;;;4975719;28;20053;-86
2021/12/23 06:52:14;;;;;;;67.55;30.00;;;-0.30;99.90;;;;;;4972838;28;20081;-86
2021/12/23 06:54:43;;;;;;;60.33;29.48;;;-0.30;99.90;;;;;;4972777;28;20056;-86
2021/12/23 06:57:09;;;;;;;68.10;29.20;;;-0.30;99.90;;;;;;4973146;28;20045;-86
2021/12/23 06:59:35;;;;;;;61.85;29.48;;;-0.20;99.90;;;;;;4996357;28;20125;-87
2021/12/23 07:02:00;;;;;;;69.40;30.90;;;-0.30;99.90;;;;;;4980398;28;20536;-85
2021/12/23 07:04:30;;;;;;;68.50;31.15;;;-0.20;99.90;;;;;;4990933;28;20476;-85
2021/12/23 07:07:08;;;;;;;70.25;30.65;;;-0.20;99.90;;;;;;4972486;28;20267;-85
2021/12/23 07:09:39;;;;;;;67.53;29.77;;;-0.20;99.90;;;;;;4976098;28;20105;-86
2021/12/23 07:12:06;;;;;;;72.72;30.45;;;-0.20;99.90;;;;;;4975650;28;20057;-86
2021/12/23 07:14:32;;;;;;;66.55;29.27;;;-0.20;99.90;;;;;;4991498;28;20045;-86
2021/12/23 07:16:58;;;;;;;71.35;31.95;;;-0.20;99.90;;;;;;4975889;28;20053;-85
2021/12/23 07:19:23;;;;;;;70.82;30.80;;;-0.20;99.90;;;;;;4976291;28;20530;-86
2021/12/23 07:21:49;;;;;;;66.30;30.90;;;-0.20;99.90;;;;;;4988610;28;20493;-85
2021/12/23 07:24:14;;;;;;;64.53;29.88;;;-0.20;99.90;;;;;;4987708;28;20038;-85
2021/12/23 07:26:41;;;;;;;72.13;29.95;;;-0.20;99.90;;;;;;4977092;28;20037;-86
2021/12/23 07:29:07;;;;;;;68.15;30.83;;;-0.10;99.90;;;;;;4990634;28;20060;-85
2021/12/23 07:31:33;;;;;;;70.35;29.88;;;-0.20;99.90;;;;;;4988842;28;20682;-86
2021/12/23 07:33:58;;;;;;;70.45;30.27;;;-0.10;99.90;;;;;;4986994;28;20062;-86
2021/12/23 07:36:27;;;;;;;72.25;32.60;;;-0.10;99.90;;;;;;4967223;28;20057;-86
2021/12/23 07:38:53;;;;;;;69.18;32.28;;;-0.10;99.90;;;;;;4958323;28;20081;-87
2021/12/23 07:41:19;;;;;;;71.45;29.65;;;-0.10;99.90;;;;;;4971169;28;20510;-86
2021/12/23 07:43:57;;;;;;;70.80;32.13;;;-0.10;99.90;;;;;;4951551;28;20060;-86
2021/12/23 07:46:24;;;;;;;71.82;30.30;;;0.00;99.90;;;;;;4954209;28;20046;-86
2021/12/23 07:48:50;;;;;;;72.80;31.60;;;0.10;99.90;;;;;;4954549;28;20270;-86
2021/12/23 07:51:16;;;;;;;63.58;29.25;;;0.10;99.90;;;;;;4955389;28;20586;-86
2021/12/23 07:53:42;;;;;;;69.65;32.13;;;0.20;99.90;;;;;;4956886;28;20042;-85
2021/12/23 07:56:07;;;;;;;70.75;31.55;;;0.20;99.90;;;;;;4971664;28;20490;-85
2021/12/23 07:58:33;;;;;;;69.00;29.95;;;0.10;99.90;;;;;;4958325;28;20104;-83
2021/12/23 08:00:58;;;;;;;72.40;30.73;;;0.10;99.90;;;;;;4967254;28;20045;-85
2021/12/23 08:03:24;;;;;;;72.80;31.63;;;0.00;99.90;;;;;;4978559;28;20042;-85
2021/12/23 08:05:52;;;;;;;73.18;32.15;;;0.10;99.90;;;;;;4975651;28;20086;-85
2021/12/23 08:08:18;;;;;;;64.05;28.27;;;0.00;99.90;;;;;;4961245;28;20670;-84
2021/12/23 08:10:44;;;;;;;76.05;33.80;;;0.10;99.90;;;;;;4991895;28;20081;-84
2021/12/23 08:13:09;;;;;;;70.28;29.27;;;0.00;99.90;;;;;;4987881;28;20092;-85
2021/12/23 08:15:35;;;;;;;69.75;31.88;;;0.10;99.90;;;;;;4977265;28;20030;-85
2021/12/23 08:18:01;;;;;;;71.38;31.95;;;0.10;99.90;;;;;;4974346;28;20492;-84
2021/12/23 08:20:28;;;;;;;74.20;31.67;;;0.10;99.90;;;;;;4990425;28;20081;-85
2021/12/23 08:22:54;;;;;;;77.38;33.03;;;0.10;99.90;;;;;;4973057;28;20046;-85
2021/12/23 08:25:22;;;;;;;78.22;32.75;;;0.00;99.90;;;;;;4984671;28;20101;-85
2021/12/23 08:27:48;;;;;;;71.80;32.00;;;0.00;99.90;;;;;;4972830;28;20495;-86
2021/12/23 08:30:15;;;;;;;80.25;34.60;;;0.10;99.90;;;;;;4973903;28;20093;-86
2021/12/23 08:32:41;;;;;;;74.47;32.03;;;0.20;99.90;;;;;;4973647;28;20045;-86
2021/12/23 08:35:07;;;;;;;83.22;32.78;;;0.10;99.90;;;;;;4989883;28;20045;-86
2021/12/23 08:37:33;;;;;;;74.00;33.95;;;0.10;99.90;;;;;;4974626;28;20089;-86
2021/12/23 08:39:59;;;;;;;74.53;32.90;;;0.10;99.90;;;;;;4970099;28;20038;-85
2021/12/23 08:42:24;;;;;;;81.38;34.80;;;0.10;99.90;;;;;;4987021;28;20051;-86
2021/12/23 08:44:50;;;;;;;78.25;33.80;;;0.20;99.90;;;;;;4973857;28;20042;-85
2021/12/23 08:47:16;;;;;;;81.00;34.35;;;0.00;99.90;;;;;;4974135;28;20048;-86
2021/12/23 08:49:42;;;;;;;85.82;33.60;;;0.10;99.90;;;;;;4993674;28;20057;-85
2021/12/23 08:52:08;;;;;;;87.55;35.38;;;0.20;99.90;;;;;;4987243;28;20101;-85
2021/12/23 08:54:34;;;;;;;75.18;33.97;;;0.30;99.90;;;;;;4972154;28;20417;-86
2021/12/23 08:57:00;;;;;;;82.90;35.92;;;0.30;99.90;;;;;;4974531;28;20162;-85
2021/12/23 08:59:26;;;;;;;87.97;35.92;;;0.40;99.90;;;;;;4972874;28;20038;-86
2021/12/23 09:01:53;;;;;;;87.13;37.38;;;0.40;99.90;;;;;;4971931;28;20040;-85
2021/12/23 09:04:18;;;;;;;82.93;35.00;;;0.40;99.90;;;;;;4969989;28;20042;-86
2021/12/23 09:06:44;;;;;;;97.60;37.95;;;0.40;99.90;;;;;;4988311;28;20044;-85
2021/12/23 09:09:10;;;;;;;89.32;36.53;;;0.50;99.90;;;;;;4971506;28;20042;-86
2021/12/23 09:11:36;;;;;;;103.20;38.28;;;0.40;99.90;;;;;;4970925;28;20145;-86
2021/12/23 09:14:02;;;;;;;89.07;34.47;;;0.30;99.90;;;;;;4973543;28;20041;-86
2021/12/23 09:16:27;;;;;;;97.03;39.92;;;0.40;99.90;;;;;;4973314;28;20046;-86
2021/12/23 09:18:53;;;;;;;90.35;37.47;;;0.40;99.90;;;;;;4972977;28;20129;-87
2021/12/23 09:21:19;;;;;;;105.68;40.20;;;0.40;99.90;;;;;;4989731;28;20042;-87
2021/12/23 09:23:45;;;;;;;111.43;43.42;;;0.30;99.90;;;;;;4973507;28;20483;-87
2021/12/23 09:26:11;;;;;;;98.55;39.00;;;0.40;99.90;;;;;;4974313;28;20124;-87
2021/12/23 09:29:03;;;;;;;107.38;41.67;;;0.40;99.90;;;;;;4988135;28;20042;-87
2021/12/23 09:34:14;;;;;;;102.38;40.15;;;0.40;99.90;;;;;;4991574;28;20104;-87
2021/12/23 09:36:40;;;;;;;101.88;39.38;;;0.50;99.90;;;;;;4980671;28;20136;-87
2021/12/23 09:39:09;;;;;;;110.88;41.33;;;0.50;99.90;;;;;;5028501;28;20517;-88
2021/12/23 09:41:38;;;;;;;104.90;40.45;;;0.50;99.90;;;;;;4995278;28;20069;-87
2021/12/23 09:44:05;;;;;;;104.55;39.28;;;0.50;99.90;;;;;;4994375;28;20434;-87
2021/12/23 09:46:34;;;;;;;106.63;41.25;;;0.50;99.90;;;;;;4986559;28;20038;-87
2021/12/23 09:49:01;;;;;;;114.82;42.60;;;0.60;99.90;;;;;;4991897;28;20523;-87
2021/12/23 09:51:29;;;;;;;110.85;43.33;;;0.50;99.90;;;;;;4992213;28;20633;-87
2021/12/23 09:53:58;;;;;;;102.28;40.13;;;0.50;99.90;;;;;;4990003;28;20100;-87
2021/12/23 09:56:28;;;;;;;113.05;42.60;;;0.50;99.90;;;;;;4987871;28;20462;-86
2021/12/23 09:58:58;;;;;;;108.15;40.97;;;0.50;99.90;;;;;;4986354;28;20185;-87
2021/12/23 10:01:30;;;;;;;114.28;40.83;;;0.50;99.90;;;;;;4984506;28;20029;-88
2021/12/23 10:03:56;;;;;;;120.85;44.10;;;0.50;99.90;;;;;;4979495;28;20108;-88
2021/12/23 10:06:24;;;;;;;115.63;41.95;;;0.60;99.90;;;;;;5007818;28;20120;-87
2021/12/23 10:08:50;;;;;;;108.07;39.80;;;0.60;99.90;;;;;;4985552;28;20049;-88
2021/12/23 10:33:10;;;;;;;121.18;44.53;;;0.50;99.90;;;;;;5012291;28;20709;-86
2021/12/23 10:38:38;;;;;;;133.43;46.10;;;0.50;99.90;;;;;;5009246;28;20072;-86
2021/12/23 10:41:28;;;;;;;118.85;42.35;;;0.60;99.90;;;;;;5008046;28;20095;-86
2021/12/23 10:44:01;;;;;;;121.32;44.30;;;0.50;99.90;;;;;;4994550;28;20038;-88
2021/12/23 10:46:33;;;;;;;128.32;45.53;;;0.60;99.90;;;;;;4994718;28;20045;-88
2021/12/23 10:52:01;;;;;;;107.55;41.00;;;0.70;99.90;;;;;;5010584;28;20049;-89
2021/12/23 11:00:29;;;;;;;123.07;53.55;;;0.90;99.90;;;;;;5005667;28;20045;-90
2021/12/23 11:03:08;;;;;;;131.85;50.88;;;0.80;99.90;;;;;;4994327;28;20038;-87
2021/12/23 11:05:40;;;;;;;184.88;103.10;;;0.70;99.90;;;;;;4996238;28;20041;-87
2021/12/23 11:38:33;;;;;;;122.90;45.45;;;0.80;99.90;;;;;;5011419;28;20057;-87
2021/12/23 11:41:07;;;;;;;136.70;44.90;;;0.80;99.90;;;;;;4993684;28;20057;-87
2021/12/23 11:43:57;;;;;;;136.02;47.42;;;0.80;99.90;;;;;;5005537;28;20041;-85
2021/12/23 11:46:53;;;;;;;125.40;45.45;;;0.80;99.90;;;;;;5006357;28;20508;-87
2021/12/23 11:49:21;;;;;;;127.22;45.65;;;0.80;99.90;;;;;;5010134;28;20521;-90
2021/12/23 11:54:18;;;;;;;135.25;49.67;;;0.90;99.90;;;;;;5010933;28;20057;-90
2021/12/23 11:56:51;;;;;;;124.75;45.83;;;0.90;99.90;;;;;;4993408;28;20407;-86
2021/12/23 11:59:18;;;;;;;120.82;43.53;;;1.00;99.90;;;;;;5003049;28;20037;-87
2021/12/23 12:01:47;;;;;;;119.57;46.00;;;1.00;99.90;;;;;;4986219;28;20176;-86
2021/12/23 12:04:46;;;;;;;125.38;44.22;;;1.00;99.90;;;;;;4989643;28;20500;-90
2021/12/23 12:07:22;;;;;;;128.98;43.03;;;1.10;99.90;;;;;;4988054;28;20049;-88
2021/12/23 12:10:07;;;;;;;120.22;44.90;;;1.10;99.90;;;;;;4992396;28;20091;-89
2021/12/23 12:12:34;;;;;;;128.82;42.22;;;1.10;99.90;;;;;;4990021;28;20068;-89
2021/12/23 12:15:01;;;;;;;126.20;47.75;;;1.20;99.90;;;;;;4991408;28;20041;-89
2021/12/23 12:17:28;;;;;;;127.25;45.92;;;1.20;99.90;;;;;;4993316;28;20655;-89
2021/12/23 12:20:03;;;;;;;126.75;43.92;;;1.20;99.90;;;;;;4992193;28;20042;-88
2021/12/23 12:22:47;;;;;;;123.63;44.05;;;1.20;99.90;;;;;;5010278;28;20045;-91
2021/12/23 12:25:44;;;;;;;129.00;47.13;;;1.20;99.90;;;;;;5007958;28;20091;-91
2021/12/23 12:28:15;;;;;;;118.25;39.05;;;1.20;99.90;;;;;;4983615;28;20049;-90
2021/12/23 12:30:42;;;;;;;117.18;41.08;;;1.20;99.90;;;;;;4987808;28;20053;-90
2021/12/23 12:33:23;;;;;;;129.40;44.55;;;1.10;99.90;;;;;;5006761;28;20133;-90
2021/12/23 12:35:49;;;;;;;108.95;39.13;;;1.10;99.90;;;;;;5008037;28;20136;-90
2021/12/23 12:38:23;;;;;;;115.70;42.60;;;1.20;99.90;;;;;;4992389;28;20068;-92
2021/12/23 12:41:03;;;;;;;117.13;42.72;;;1.10;99.90;;;;;;4993033;28;20091;-94
2021/12/23 12:43:41;;;;;;;125.40;43.05;;;1.10;99.90;;;;;;4992673;28;20403;-87
2021/12/23 12:46:07;;;;;;;117.65;42.47;;;1.10;99.90;;;;;;4990509;28;20554;-88
2021/12/23 12:48:59;;;;;;;122.45;43.20;;;1.10;99.90;;;;;;5008077;28;20048;-89
2021/12/23 12:51:27;;;;;;;116.32;42.03;;;1.20;99.90;;;;;;4990530;28;20045;-89
2021/12/23 12:54:02;;;;;;;124.03;44.22;;;1.20;99.90;;;;;;4994239;28;20495;-88
2021/12/23 12:56:30;;;;;;;113.70;43.10;;;1.20;99.90;;;;;;4994548;28;20095;-88
2021/12/23 12:58:56;;;;;;;126.20;42.58;;;1.30;99.90;;;;;;4986716;28;20148;-89
2021/12/23 13:01:42;;;;;;;111.35;42.67;;;1.30;99.90;;;;;;4994692;28;20140;-88
2021/12/23 13:04:36;;;;;;;125.85;47.97;;;1.30;99.90;;;;;;4992484;28;20045;-86
2021/12/23 13:07:15;;;;;;;122.18;44.13;;;1.20;99.90;;;;;;4995974;28;20037;-90
2021/12/23 13:09:55;;;;;;;119.53;42.10;;;1.20;99.90;;;;;;4984265;28;20041;-88
2021/12/23 13:12:49;;;;;;;127.90;42.58;;;1.20;99.90;;;;;;4994863;28;20052;-88
2021/12/23 13:15:57;;;;;;;127.53;43.58;;;1.30;99.90;;;;;;4995426;28;20049;-88
2021/12/23 13:18:23;;;;;;;121.90;42.85;;;1.40;99.90;;;;;;4962341;28;20045;-87
2021/12/23 13:24:55;;;;;;;114.47;42.67;;;1.30;99.90;;;;;;4898513;29;20059;-94
2021/12/23 13:42:41;;;;;;;120.85;43.08;;;1.30;99.90;;;;;;4875085;29;20463;-89
2021/12/23 13:45:09;;;;;;;123.70;44.03;;;1.30;99.90;;;;;;4863599;29;20136;-96
2021/12/23 13:47:39;;;;;;;119.32;42.90;;;1.20;99.90;;;;;;4865034;29;20057;-92
2021/12/23 13:50:05;;;;;;;125.88;43.60;;;1.30;99.90;;;;;;4842105;29;20065;-90
2021/12/23 13:52:38;;;;;;;112.50;39.58;;;1.30;99.90;;;;;;4842701;29;20062;-93
2021/12/23 13:55:10;;;;;;;125.95;44.78;;;1.30;99.90;;;;;;4871529;29;20058;-93
2021/12/23 13:57:42;;;;;;;170.32;57.35;;;1.30;99.90;;;;;;4877160;29;20053;-92
2021/12/23 14:00:13;;;;;;;282.25;98.60;;;1.40;99.90;;;;;;4869327;29;20132;-92
2021/12/23 14:02:39;;;;;;;243.35;90.25;;;1.40;99.90;;;;;;4911202;29;20051;-94
2021/12/23 14:05:07;;;;;;;236.88;87.03;;;1.40;99.90;;;;;;4939353;29;20063;-93
2021/12/23 14:07:41;;;;;;;272.63;105.78;;;1.40;99.90;;;;;;4935485;29;20059;-95
2021/12/23 14:10:37;;;;;;;;;;;;;;;;;;;;;
2021/12/23 14:13:09;;;;;;;145.38;59.78;;;1.60;99.90;;;;;;4995630;28;20567;-94